23:23
Airports
Links
Donate
Help keep this website running!
PayPal
Bitcoin
METAR
LEMD 292300Z 00000KT 6000 SCT009 10/10 Q1011 R88/29//95 NOSIG
Current Weather Conditions at LEMD
MVFR 23:00:00 29-04-17
Altimeter:29.85 hg
Temp:10.0°c 50°f
Dew point:10.0°c 50°f
Wind:0 knots, 0 mph, 0 m/s,
Variable direction
Visibility:3.73 statute miles
900(SCT) Scattered
No significant weather changes expected within 2 hours.
Past METAR reports
VFR 22:30:00 29-04-17
Altimeter:29.85 hg
Temp:10.0°c 50°f
Dew point:9.0°c 48°f
Wind:2 knots, 2.3 mph, 1 m/s,
Variable direction
Visibility:6.21 statute miles
900(SCT) Scattered
No significant weather changes expected within 2 hours.
LEMD 292230Z VRB02KT 9999 SCT009 10/09 Q1011 R88/29//95 NOSIG
IFR 22:00:00 29-04-17
Altimeter:29.85 hg
Temp:11.0°c 52°f
Dew point:10.0°c 50°f
Wind:2 knots, 2.3 mph, 1 m/s, from 340°
Visibility:6.21 statute miles
800(BKN) Broken
No significant weather changes expected within 2 hours.
LEMD 292200Z 34002KT 9999 BKN008 11/10 Q1011 R88/29//95 NOSIG
MVFR 21:30:00 29-04-17
Altimeter:29.85 hg
Temp:11.0°c 52°f
Dew point:10.0°c 50°f
Wind:0 knots, 0 mph, 0 m/s,
Variable direction
Visibility:6.21 statute miles
1000(BKN) Broken
700(FEW) A few
No significant weather changes expected within 2 hours.
LEMD 292130Z 00000KT 9999 FEW007 BKN010 11/10 Q1011 R88/29//95 NOSIG
MVFR 21:00:00 29-04-17
Altimeter:29.85 hg
Temp:11.0°c 52°f
Dew point:10.0°c 50°f
Wind:3 knots, 3.5 mph, 2 m/s, from 350°
Visibility:6.21 statute miles
6000(BKN) Broken
1000(BKN) Broken
No significant weather changes expected within 2 hours.
LEMD 292100Z 35003KT 320V020 9999 BKN010 BKN060 11/10 Q1011 RERA R88/29//95 NOSIG
VFR 20:47:00 29-04-17
Altimeter:29.85 hg
Temp:11.0°c 52°f
Dew point:10.0°c 50°f
Wind:3 knots, 3.5 mph, 2 m/s, from 360°
Visibility:6.21 statute miles
6000(BKN) Broken
1000(SCT) Scattered
No significant weather changes expected within 2 hours.
LEMD 292047Z 36003KT 320V060 9999 RA SCT010 BKN060 11/10 Q1011 R88/29//95 NOSIG
MVFR 20:30:00 29-04-17
Altimeter:29.85 hg
Temp:10.0°c 50°f
Dew point:10.0°c 50°f
Wind:5 knots, 5.8 mph, 3 m/s, from 360°
Visibility:6.21 statute miles
1000(BKN) Broken
800(FEW) A few
No significant weather changes expected within 2 hours.
LEMD 292030Z 36005KT 9999 FEW008 BKN010 10/10 Q1011 R88/29//95 NOSIG
TAF
TAF AMD LEMD 292013Z 2920/3024 VRB05KT 9999 SCT006 SCT014 TX14/3016Z TN09/3006Z PROB40 TEMPO 2920/3008 3000 RA BR BKN010 BECMG 3003/3005 22015KT TEMPO 3009/3019 22020G30KT
Forecast at LEMD
20:00 29-04-17 to 03:00 30-04-17
Wind:5 Knots from 360°
Visibility:6.21 statute miles
600SCT Scattered
1400SCT Scattered
TEMPO 20:00 29-04-17 to 08:00 30-04-17
40% RA BR
Visibility:1.86 statute miles
1000BKN Broken
BECMG 03:00 30-04-17 to 00:00 01-05-17
Wind:15 Knots from 220°
Visibility:6.21 statute miles
600SCT Scattered
1400SCT Scattered
TEMPO 09:00 30-04-17 to 19:00 30-04-17
Wind:20 Knots from 220°